Time;durP1;ratioP1;P1;durP2;ratioP2;P2;SDS_P1;SDS_P2;PMS_P1;PMS_P2;Temp;Humidity;BMP_temperature;BMP_pressure;BME280_temperature;BME280_humidity;BME280_pressure;Samples;Min_cycle;Max_cycle;Signal;HPM_P1;HPM_P2
2022/11/30 00:04:17;;;;;;;85.97;43.10;;;;;;;1.99;100.00;101650.66;5142067;55;1140907;-70
2022/11/30 00:09:23;;;;;;;75.63;39.07;;;;;;;2.01;100.00;101654.55;5122802;55;1141346;-68
2022/11/30 00:14:30;;;;;;;71.97;37.70;;;;;;;1.98;100.00;101653.34;5121734;55;1141055;-69
2022/11/30 00:19:37;;;;;;;85.13;42.27;;;;;;;1.99;100.00;101662.85;5122456;55;1141098;-67
2022/11/30 00:24:43;;;;;;;88.70;43.10;;;;;;;1.97;100.00;101664.22;5141746;55;1140855;-68
2022/11/30 00:29:51;;;;;;;84.93;40.70;;;;;;;1.95;100.00;101673.83;5121868;55;1141192;-67
2022/11/30 00:34:57;;;;;;;84.10;40.45;;;;;;;1.93;100.00;101673.45;5095107;55;1140989;-69
2022/11/30 00:40:02;;;;;;;83.13;40.83;;;;;;;1.91;100.00;101675.23;5058162;55;1140997;-67
2022/11/30 00:45:10;;;;;;;91.57;44.57;;;;;;;1.87;100.00;101678.35;5028626;55;1141208;-68
2022/11/30 00:50:16;;;;;;;87.13;39.83;;;;;;;1.86;100.00;101689.67;5038563;56;1140969;-67
2022/11/30 00:55:22;;;;;;;85.07;42.97;;;;;;;1.86;100.00;101679.69;5094606;55;1140947;-67
2022/11/30 01:00:28;;;;;;;87.73;43.63;;;;;;;1.85;100.00;101688.41;5129385;55;1140950;-67
2022/11/30 01:05:35;;;;;;;87.02;42.53;;;;;;;1.76;100.00;101689.05;5129321;55;1141009;-66
2022/11/30 01:10:43;;;;;;;85.93;42.83;;;;;;;1.75;100.00;101689.93;5129095;55;1141021;-68
2022/11/30 01:15:48;;;;;;;87.03;44.03;;;;;;;1.75;100.00;101697.75;5149032;55;1141031;-68
2022/11/30 01:20:54;;;;;;;98.40;46.80;;;;;;;1.73;100.00;101704.75;5128736;55;1141318;-69
2022/11/30 01:26:00;;;;;;;97.57;45.77;;;;;;;1.73;100.00;101704.75;5128918;55;1141011;-68
2022/11/30 01:31:11;;;;;;;93.53;43.87;;;;;;;1.71;100.00;101705.67;5130813;55;1140900;-68
2022/11/30 01:36:21;;;;;;;84.70;44.77;;;;;;;1.71;100.00;101710.89;5079228;55;1140804;-67
2022/11/30 01:41:31;;;;;;;87.90;45.53;;;;;;;1.64;100.00;101711.48;5119300;55;1140838;-68
2022/11/30 01:46:44;;;;;;;93.78;44.67;;;;;;;1.63;100.00;101712.38;5129389;55;1140978;-67
2022/11/30 01:52:00;;;;;;;104.12;48.08;;;;;;;1.61;100.00;101710.24;5148965;55;1141065;-67
2022/11/30 01:57:22;;;;;;;101.33;47.50;;;;;;;1.60;100.00;101719.39;5043032;55;1143073;-68
2022/11/30 02:02:32;;;;;;;94.00;45.03;;;;;;;1.59;100.00;101721.14;5092821;55;1143023;-65
2022/11/30 02:07:38;;;;;;;97.85;45.38;;;;;;;1.58;100.00;101729.00;5121111;55;1141191;-66
2022/11/30 02:13:09;;;;;;;102.07;48.93;;;;;;;1.53;100.00;101723.88;5142487;55;1140952;-67
2022/11/30 02:18:25;;;;;;;109.52;48.70;;;;;;;1.47;100.00;101729.67;5122023;55;1143076;-69
2022/11/30 02:24:01;;;;;;;101.15;48.13;;;;;;;1.49;100.00;101729.20;5121712;55;1142984;-65
2022/11/30 02:29:19;;;;;;;109.97;51.10;;;;;;;1.47;100.00;101726.62;5121610;55;1142988;-68
2022/11/30 02:34:28;;;;;;;103.63;52.27;;;;;;;1.42;100.00;101718.03;5133214;55;1142962;-69
2022/11/30 02:39:33;;;;;;;110.93;51.13;;;;;;;1.33;100.00;101724.30;5121996;55;1143046;-67
2022/11/30 02:44:41;;;;;;;108.70;52.87;;;;;;;1.29;100.00;101722.64;5122786;55;1143151;-69
2022/11/30 02:50:10;;;;;;;114.70;53.40;;;;;;;1.28;100.00;101722.23;5141867;55;1143247;-66
2022/11/30 02:55:19;;;;;;;110.17;52.13;;;;;;;1.22;100.00;101718.91;5031432;55;1143012;-67
2022/11/30 03:00:25;;;;;;;107.70;50.20;;;;;;;1.27;100.00;101728.33;5035417;55;1143148;-65
2022/11/30 03:05:33;;;;;;;109.50;50.98;;;;;;;1.23;100.00;101732.31;5128360;55;1143102;-68
2022/11/30 03:10:40;;;;;;;96.70;48.00;;;;;;;1.21;100.00;101735.42;5148364;55;1143114;-66
2022/11/30 03:15:46;;;;;;;96.10;48.90;;;;;;;1.15;100.00;101733.78;5128947;55;1141126;-69
2022/11/30 03:20:52;;;;;;;103.13;49.70;;;;;;;1.14;100.00;101741.63;5128629;55;1140992;-68
2022/11/30 03:25:59;;;;;;;95.33;47.23;;;;;;;1.04;100.00;101739.20;5148325;55;1143127;-71
2022/11/30 03:31:05;;;;;;;102.63;46.67;;;;;;;0.98;100.00;101741.92;5128642;55;1140963;-69
2022/11/30 03:36:12;;;;;;;103.33;48.30;;;;;;;0.91;100.00;101748.14;5107128;55;1143063;-68
2022/11/30 03:41:18;;;;;;;93.50;45.90;;;;;;;0.85;100.00;101743.47;5041434;55;1143038;-66
2022/11/30 03:46:26;;;;;;;109.53;49.00;;;;;;;0.82;100.00;101750.03;4887806;57;1141038;-66
2022/11/30 03:51:32;;;;;;;93.92;44.27;;;;;;;0.81;100.00;101755.68;4923821;57;1143062;-67
2022/11/30 03:56:39;;;;;;;95.60;47.53;;;;;;;0.84;100.00;101758.23;5064027;56;1141093;-69
2022/11/30 04:01:46;;;;;;;103.20;51.48;;;;;;;0.85;100.00;101759.95;5019099;56;1141191;-71
2022/11/30 04:06:51;;;;;;;105.67;48.90;;;;;;;0.78;100.00;101762.23;5085211;56;1142906;-67
2022/11/30 04:11:57;;;;;;;84.07;45.63;;;;;;;0.79;100.00;101774.38;5084596;56;1143207;-70
2022/11/30 04:17:03;;;;;;;88.27;43.93;;;;;;;0.73;100.00;101762.78;5105201;56;1141014;-67
2022/11/30 04:22:09;;;;;;;80.07;40.07;;;;;;;0.75;100.00;101776.64;5088251;56;1140903;-68
2022/11/30 04:27:14;;;;;;;82.83;42.37;;;;;;;0.68;100.00;101776.31;5085703;56;1140891;-67
2022/11/30 04:32:21;;;;;;;92.47;47.77;;;;;;;0.68;100.00;101778.91;5100157;56;1141113;-64
2022/11/30 04:37:28;;;;;;;86.93;41.90;;;;;;;0.70;100.00;101778.02;5098459;56;1141158;-67
2022/11/30 04:42:34;;;;;;;80.57;40.63;;;;;;;0.66;100.00;101781.54;5103295;56;1141005;-69
2022/11/30 04:47:39;;;;;;;86.37;41.87;;;;;;;0.60;100.00;101782.96;5070215;56;1140898;-71
2022/11/30 04:52:47;;;;;;;83.53;40.20;;;;;;;0.59;100.00;101792.95;5021341;56;1141084;-68
2022/11/30 04:57:52;;;;;;;94.83;45.80;;;;;;;0.58;100.00;101793.84;5057500;56;1141167;-69
2022/11/30 05:02:58;;;;;;;85.73;42.57;;;;;;;0.54;100.00;101787.39;4993661;56;1141272;-69
2022/11/30 05:08:05;;;;;;;86.07;42.50;;;;;;;0.44;100.00;101801.01;5073417;56;1141049;-67
2022/11/30 05:13:10;;;;;;;89.90;42.10;;;;;;;0.37;100.00;101803.27;4973847;56;1140965;-67
2022/11/30 05:18:16;;;;;;;86.08;42.03;;;;;;;0.30;100.00;101802.52;4952230;56;1140990;-67
2022/11/30 05:23:22;;;;;;;85.55;41.83;;;;;;;0.29;100.00;101807.74;5051711;56;1141009;-65
2022/11/30 05:28:29;;;;;;;90.87;43.57;;;;;;;0.27;100.00;101814.27;5039888;56;1141387;-67
2022/11/30 05:33:37;;;;;;;101.18;42.62;;;;;;;0.31;100.00;101809.85;5097707;55;1140975;-65
2022/11/30 05:38:43;;;;;;;100.47;45.50;;;;;;;0.28;100.00;101810.78;5057909;55;1143283;-66
2022/11/30 05:43:48;;;;;;;103.07;47.17;;;;;;;0.24;100.00;101818.64;5099316;55;1143310;-67
2022/11/30 05:48:54;;;;;;;98.83;44.73;;;;;;;0.17;100.00;101820.46;5128423;55;1142986;-67
2022/11/30 05:54:00;;;;;;;106.07;49.23;;;;;;;0.17;100.00;101824.36;5078833;55;1141169;-68
2022/11/30 05:59:05;;;;;;;116.53;50.17;;;;;;;0.23;100.00;101831.23;5061368;56;1142970;-70
2022/11/30 06:04:11;;;;;;;108.93;46.47;;;;;;;0.24;100.00;101839.45;5120488;55;1143165;-68
2022/11/30 06:09:17;;;;;;;94.30;43.10;;;;;;;0.25;100.00;101847.25;5091901;55;1142962;-69
2022/11/30 06:14:23;;;;;;;96.63;44.17;;;;;;;0.22;100.00;101852.48;5109211;56;1140963;-69
2022/11/30 06:19:29;;;;;;;111.80;44.43;;;;;;;0.17;100.00;101853.41;5099342;55;1146766;-68
2022/11/30 06:24:35;;;;;;;118.23;56.73;;;;;;;0.11;100.00;101862.19;5098289;55;1144778;-70
2022/11/30 06:29:40;;;;;;;102.20;48.83;;;;;;;0.13;100.00;101877.77;5099089;55;1143259;-67
2022/11/30 06:34:46;;;;;;;107.27;46.87;;;;;;;0.13;100.00;101877.77;5092193;56;1143140;-68
2022/11/30 06:39:52;;;;;;;106.03;49.67;;;;;;;0.09;100.00;101876.95;4958648;57;1143198;-68
2022/11/30 06:44:57;;;;;;;104.67;47.93;;;;;;;0.10;100.00;101881.70;5012980;57;1143107;-68
2022/11/30 06:50:03;;;;;;;91.32;41.83;;;;;;;0.10;100.00;101882.57;5015101;55;1142963;-66
2022/11/30 06:55:09;;;;;;;91.17;41.30;;;;;;;0.14;100.00;101884.70;5047623;55;1140982;-66
2022/11/30 07:00:15;;;;;;;87.83;41.47;;;;;;;0.11;100.00;101893.84;5073388;55;1141005;-68
2022/11/30 07:05:22;;;;;;;90.63;43.07;;;;;;;0.15;100.00;101900.73;5118402;55;1140990;-68
2022/11/30 07:10:27;;;;;;;99.30;44.10;;;;;;;0.13;100.00;101902.05;5180966;55;1140938;-69
2022/11/30 07:15:34;;;;;;;98.58;45.33;;;;;;;0.09;100.00;101909.46;5094419;55;1140997;-65
2022/11/30 07:20:40;;;;;;;89.95;39.95;;;;;;;0.10;100.00;101911.19;5086501;56;1141020;-69
2022/11/30 07:31:22;;;;;;;;;;;;;;;0.08;100.00;101915.98;5071541;55;1140887;-68
2022/11/30 07:36:30;;;;;;;95.47;41.47;;;;;;;0.11;100.00;101928.95;5117588;55;974080;-68
2022/11/30 07:41:36;;;;;;;89.15;40.12;;;;;;;0.13;100.00;101925.45;5119520;55;1139088;-65
2022/11/30 07:46:41;;;;;;;92.12;40.25;;;;;;;0.15;100.00;101920.24;5064152;56;1141127;-70
2022/11/30 07:51:47;;;;;;;106.87;44.37;;;;;;;0.16;100.00;101924.53;5107773;55;1141103;-69
2022/11/30 07:56:53;;;;;;;97.20;41.03;;;;;;;0.16;100.00;101918.03;5049908;55;1143133;-65
2022/11/30 08:01:59;;;;;;;98.97;44.10;;;;;;;0.13;100.00;101920.26;5124912;55;1140858;-67
2022/11/30 08:07:04;;;;;;;91.07;39.20;;;;;;;0.14;100.00;101921.98;5131128;55;1140876;-68
2022/11/30 08:12:10;;;;;;;90.20;39.57;;;;;;;0.14;100.00;101928.48;5151675;55;1140997;-70
2022/11/30 08:17:16;;;;;;;88.95;39.45;;;;;;;0.15;100.00;101930.65;5176494;55;1140832;-65
2022/11/30 08:22:22;;;;;;;91.57;39.50;;;;;;;0.15;100.00;101937.15;5156247;55;1141077;-68
2022/11/30 08:27:28;;;;;;;117.47;49.70;;;;;;;0.11;100.00;101935.45;5154205;55;1253055;-66
2022/11/30 08:32:34;;;;;;;94.22;41.15;;;;;;;0.13;100.00;101937.16;5155887;55;1147994;-68
2022/11/30 08:37:40;;;;;;;94.67;40.27;;;;;;;0.18;100.00;101943.16;5192990;54;1140890;-67
2022/11/30 08:42:45;;;;;;;97.30;43.03;;;;;;;0.20;100.00;101943.14;5098244;55;1141220;-66
2022/11/30 08:47:51;;;;;;;135.10;51.60;;;;;;;0.19;100.00;101947.92;5176096;55;1140924;-68
2022/11/30 08:52:57;;;;;;;139.17;54.97;;;;;;;0.18;100.00;101955.30;5108333;55;1143071;-68
2022/11/30 08:58:02;;;;;;;138.90;52.10;;;;;;;0.14;100.00;101962.30;5088066;56;1143077;-67
2022/11/30 09:03:08;;;;;;;94.65;41.53;;;;;;;0.09;100.00;101977.53;5059070;54;1143026;-71
2022/11/30 09:08:13;;;;;;;81.27;36.63;;;;;;;0.08;100.00;101975.80;5037466;56;1141273;-70
2022/11/30 09:13:19;;;;;;;83.47;41.40;;;;;;;0.08;100.00;101975.36;5015253;56;1140917;-67
2022/11/30 09:18:24;;;;;;;92.93;41.73;;;;;;;0.09;100.00;101975.79;5014467;56;1140956;-67
2022/11/30 09:23:30;;;;;;;85.03;39.10;;;;;;;0.09;100.00;101984.03;5037579;56;1141103;-69
2022/11/30 09:28:37;;;;;;;91.57;42.07;;;;;;;0.08;100.00;101974.06;5031251;55;1144254;-69
2022/11/30 09:33:43;;;;;;;95.28;39.80;;;;;;;0.07;100.00;101981.88;5015752;56;1140988;-66
2022/11/30 09:38:50;;;;;;;87.53;43.43;;;;;;;0.10;100.00;101981.86;5060849;56;1140951;-66
2022/11/30 09:44:33;;;;;;;258.13;83.33;;;;;;;0.10;100.00;101971.45;5044558;56;1140994;-68
2022/11/30 09:49:44;;;;;;;124.33;54.73;;;;;;;0.12;100.00;101970.56;5051283;55;1143011;-71
2022/11/30 09:54:50;;;;;;;99.83;44.03;;;;;;;0.13;100.00;101968.38;5077171;56;1143091;-70
2022/11/30 10:00:03;;;;;;;95.73;42.00;;;;;;;0.17;100.00;101967.44;5132730;55;1140924;-67
2022/11/30 10:05:30;;;;;;;154.83;59.17;;;;;;;0.21;100.00;101970.88;5057916;55;1141127;-68
2022/11/30 10:10:42;;;;;;;116.00;50.98;;;;;;;0.25;100.00;101972.57;5015801;56;1143421;-65
2022/11/30 10:16:07;;;;;;;299.13;183.03;;;;;;;0.25;100.00;101970.83;5034032;55;1143152;-68
2022/11/30 10:21:29;;;;;;;100.77;50.70;;;;;;;0.19;100.00;101964.39;5056634;56;1145182;-67
2022/11/30 10:26:38;;;;;;;92.87;44.53;;;;;;;0.17;100.00;101968.75;5032112;56;1143051;-67
2022/11/30 10:31:46;;;;;;;97.17;42.55;;;;;;;0.18;100.00;101967.87;5071284;56;1141135;-67
2022/11/30 10:37:02;;;;;;;96.60;43.37;;;;;;;0.19;100.00;101972.63;5082859;55;1141074;-70
2022/11/30 10:42:18;;;;;;;91.23;40.57;;;;;;;0.17;100.00;101967.44;5033830;56;1141289;-68
2022/11/30 10:47:32;;;;;;;93.40;41.50;;;;;;;0.17;100.00;101960.94;4940895;56;1141220;-65
2022/11/30 10:52:54;;;;;;;85.85;36.30;;;;;;;0.18;100.00;101960.50;5043051;56;1154517;-67
2022/11/30 10:58:24;;;;;;;89.70;41.70;;;;;;;0.19;100.00;101966.99;5062143;55;1167023;-67
2022/11/30 11:03:30;;;;;;;95.93;39.93;;;;;;;0.18;100.00;101966.56;5041320;56;1214442;-65
2022/11/30 11:08:36;;;;;;;93.70;41.30;;;;;;;0.18;100.00;101962.66;5053642;55;1141139;-68
2022/11/30 11:13:44;;;;;;;95.37;42.07;;;;;;;0.21;100.00;101964.38;5082120;55;1141082;-68
2022/11/30 11:18:56;;;;;;;89.23;36.23;;;;;;;0.17;100.00;101962.67;5161602;55;1141091;-64
2022/11/30 11:24:07;;;;;;;108.92;48.75;;;;;;;0.16;100.00;101964.42;5112965;55;1141057;-68
2022/11/30 11:29:30;;;;;;;77.87;34.23;;;;;;;0.15;100.00;101960.13;4933948;57;1249469;-65
2022/11/30 11:34:37;;;;;;;99.20;39.40;;;;;;;0.15;100.00;101961.86;4915449;56;1140951;-69
2022/11/30 11:39:43;;;;;;;81.43;36.67;;;;;;;0.16;100.00;101962.25;5043260;56;1141437;-67
2022/11/30 11:44:56;;;;;;;125.70;64.83;;;;;;;0.13;100.00;101959.27;4988008;57;1141170;-67
2022/11/30 11:50:15;;;;;;;121.37;61.98;;;;;;;0.13;100.00;101955.81;5066101;56;1143174;-65
2022/11/30 11:55:22;;;;;;;84.45;36.53;;;;;;;0.21;100.00;101952.67;5043839;56;1142974;-67
2022/11/30 12:00:28;;;;;;;98.40;41.50;;;;;;;0.26;100.00;101953.48;4962329;57;1140987;-67
2022/11/30 12:05:43;;;;;;;76.70;30.97;;;;;;;0.31;100.00;101964.23;5063927;56;1141271;-65
2022/11/30 12:10:53;;;;;;;89.87;38.57;;;;;;;0.33;100.00;101960.31;4985588;56;1141180;-65
2022/11/30 12:16:21;;;;;;;102.07;48.90;;;;;;;0.29;100.00;101965.16;5007821;56;1141026;-67
2022/11/30 12:22:05;;;;;;;82.20;37.10;;;;;;;0.27;100.00;101969.52;5078351;56;1143040;-65
2022/11/30 12:27:55;;;;;;;106.17;42.47;;;;;;;0.25;100.00;101968.67;5009127;56;1141130;-67
2022/11/30 12:33:36;;;;;;;96.73;43.33;;;;;;;0.22;100.00;101977.80;5041223;56;1143153;-67
2022/11/30 12:38:51;;;;;;;102.50;44.47;;;;;;;0.21;100.00;101977.38;5028616;56;1141742;-67
2022/11/30 12:44:04;;;;;;;102.67;42.97;;;;;;;0.19;100.00;101970.89;5032472;57;1225960;-68
2022/11/30 12:49:35;;;;;;;95.92;39.27;;;;;;;0.21;100.00;101973.04;4904052;58;1253064;-67
2022/11/30 12:54:57;;;;;;;82.73;35.07;;;;;;;0.24;100.00;101973.45;5003705;56;1141157;-67
2022/11/30 13:00:13;;;;;;;99.03;42.00;;;;;;;0.22;100.00;101977.37;5036490;56;1255529;-68
2022/11/30 13:05:42;;;;;;;88.47;38.27;;;;;;;0.14;100.00;101977.91;5069473;56;1251868;-65
2022/11/30 13:10:51;;;;;;;90.25;40.78;;;;;;;0.14;100.00;101979.65;5095432;56;1253665;-69
2022/11/30 13:16:00;;;;;;;87.03;40.93;;;;;;;0.13;100.00;101981.39;5127957;56;1257372;-63
2022/11/30 13:21:21;;;;;;;84.80;36.33;;;;;;;0.08;100.00;101978.41;5131456;56;1141130;-66
2022/11/30 13:26:51;;;;;;;88.37;40.58;;;;;;;0.09;100.00;101979.69;5055876;56;1253044;-66
2022/11/30 13:32:17;;;;;;;103.23;47.07;;;;;;;0.12;100.00;101977.06;5119759;56;1256118;-66
2022/11/30 13:37:27;;;;;;;82.08;36.00;;;;;;;0.17;100.00;101986.09;5060228;56;1256113;-68
2022/11/30 13:42:42;;;;;;;118.87;42.10;;;;;;;0.17;100.00;101982.19;5062090;56;1256686;-67
2022/11/30 13:47:55;;;;;;;104.30;48.78;;;;;;;0.17;100.00;101988.69;5011856;56;1143048;-65
2022/11/30 13:53:26;;;;;;;89.00;42.08;;;;;;;0.20;100.00;101993.87;4969731;56;1143412;-64
2022/11/30 13:58:34;;;;;;;96.47;44.47;;;;;;;0.28;100.00;101993.36;5047757;56;1141106;-69
2022/11/30 14:03:39;;;;;;;72.97;36.63;;;;;;;0.27;100.00;102001.60;5010195;56;1140895;-65
2022/11/30 14:08:45;;;;;;;90.23;41.30;;;;;;;0.25;100.00;102004.66;4993142;56;1215983;-67
2022/11/30 14:13:51;;;;;;;103.37;45.13;;;;;;;0.24;100.00;102005.53;5141776;56;1140910;-67
2022/11/30 14:18:57;;;;;;;313.83;167.73;;;;;;;0.31;100.00;102010.20;5065735;56;1143047;-69
2022/11/30 14:24:21;;;;;;;83.97;39.13;;;;;;;0.35;100.00;102006.27;5021324;55;1145397;-67
2022/11/30 14:29:35;;;;;;;86.47;42.20;;;;;;;0.37;100.00;102006.25;5038950;56;1140872;-67
2022/11/30 14:34:50;;;;;;;74.37;34.80;;;;;;;0.27;100.00;102004.20;5011829;56;1140902;-66
2022/11/30 14:40:00;;;;;;;81.40;38.80;;;;;;;0.24;100.00;102008.57;5022970;56;1141690;-67
2022/11/30 14:45:10;;;;;;;103.90;45.47;;;;;;;0.25;100.00;102015.06;5092886;56;1141112;-68
2022/11/30 14:50:26;;;;;;;112.77;49.43;;;;;;;0.31;100.00;102010.20;5091446;56;1143204;-68
2022/11/30 14:56:04;;;;;;;102.47;45.40;;;;;;;0.28;100.00;102012.87;5040890;57;1143202;-65
2022/11/30 15:01:28;;;;;;;105.80;48.80;;;;;;;0.25;100.00;102012.46;5037636;56;1143001;-69
2022/11/30 15:06:35;;;;;;;80.06;40.04;;;;;;;0.32;100.00;102018.44;5058666;56;1143304;-68
2022/11/30 15:11:46;;;;;;;90.40;40.20;;;;;;;0.25;100.00;102017.67;5077551;56;1140993;-69
2022/11/30 15:16:57;;;;;;;69.77;34.00;;;;;;;0.27;100.00;102017.22;5041151;56;1141056;-68
2022/11/30 15:22:02;;;;;;;71.87;35.97;;;;;;;0.34;100.00;102022.75;5040525;57;1140983;-68
2022/11/30 15:27:13;;;;;;;78.40;39.27;;;;;;;0.36;100.00;102022.73;5066918;56;1141091;-68
2022/11/30 15:32:22;;;;;;;125.20;54.97;;;;;;;0.35;100.00;102027.08;5031117;57;1141246;-68
2022/11/30 15:37:34;;;;;;;76.20;39.50;;;;;;;0.39;100.00;102029.66;5049391;56;1143244;-66
2022/11/30 15:42:42;;;;;;;71.34;38.06;;;;;;;0.34;100.00;102027.09;5121187;56;1141296;-67
2022/11/30 15:47:48;;;;;;;64.92;35.00;;;;;;;0.30;100.00;102035.41;5080710;56;1141064;-68
2022/11/30 15:52:57;;;;;;;81.92;38.13;;;;;;;0.26;100.00;102038.91;5036922;57;1140873;-65
2022/11/30 15:58:03;;;;;;;67.17;36.10;;;;;;;0.22;100.00;102036.34;5101787;56;1140846;-67
2022/11/30 16:03:13;;;;;;;64.03;34.93;;;;;;;0.22;100.00;102041.11;5136403;56;1141141;-69
2022/11/30 16:08:19;;;;;;;79.03;41.47;;;;;;;0.23;100.00;102035.47;5075680;56;1140984;-67
2022/11/30 16:13:28;;;;;;;79.30;40.93;;;;;;;0.24;100.00;102038.49;5121367;56;1141134;-67
2022/11/30 16:18:35;;;;;;;67.70;36.40;;;;;;;0.25;100.00;102037.62;5133043;56;1141106;-68
2022/11/30 16:23:41;;;;;;;62.77;30.80;;;;;;;0.24;100.00;102035.89;5125103;56;1141018;-67
2022/11/30 16:28:46;;;;;;;63.60;33.17;;;;;;;0.24;100.00;102034.16;5065749;56;1141007;-68
2022/11/30 16:33:53;;;;;;;77.50;38.50;;;;;;;0.27;100.00;102030.66;5059426;57;1141043;-66
2022/11/30 16:38:58;;;;;;;85.77;45.43;;;;;;;0.27;100.00;102034.56;5041222;57;1141062;-66
2022/11/30 16:44:07;;;;;;;74.47;40.87;;;;;;;0.30;100.00;102035.84;5044334;57;1140960;-66
2022/11/30 16:49:13;;;;;;;60.75;33.35;;;;;;;0.25;100.00;102033.72;5026718;57;1141066;-66
2022/11/30 16:54:18;;;;;;;73.20;35.17;;;;;;;0.21;100.00;102034.18;4982453;57;1140997;-65
2022/11/30 16:59:24;;;;;;;56.53;31.83;;;;;;;0.21;100.00;102036.78;4963136;57;1141084;-68
2022/11/30 17:04:29;;;;;;;98.37;45.85;;;;;;;0.15;100.00;102037.30;5047841;56;1140919;-66
2022/11/30 17:09:35;;;;;;;59.17;30.13;;;;;;;0.17;100.00;102041.59;5064713;56;1140961;-65
2022/11/30 17:14:41;;;;;;;60.10;30.87;;;;;;;0.17;100.00;102049.39;5023414;56;1242541;-66
2022/11/30 17:19:46;;;;;;;171.60;62.37;;;;;;;0.17;100.00;102049.39;5044845;56;1140944;-67
2022/11/30 17:24:53;;;;;;;100.82;45.17;;;;;;;0.22;100.00;102052.81;5072963;56;1143136;-67
2022/11/30 17:29:59;;;;;;;72.67;33.63;;;;;;;0.23;100.00;102052.38;5063402;56;1143131;-69
2022/11/30 17:35:04;;;;;;;60.83;32.30;;;;;;;0.25;100.00;102057.13;5063369;56;1140939;-68
2022/11/30 17:40:12;;;;;;;68.57;37.00;;;;;;;0.27;100.00;102054.94;5046623;56;1141033;-65
2022/11/30 17:45:17;;;;;;;60.70;33.40;;;;;;;0.29;100.00;102063.59;5062651;56;1140878;-66
2022/11/30 17:50:23;;;;;;;56.57;30.37;;;;;;;0.24;100.00;102064.08;5043150;56;1141092;-71
2022/11/30 17:55:29;;;;;;;61.23;33.20;;;;;;;0.29;100.00;102072.70;5042356;57;1140903;-67
2022/11/30 18:00:35;;;;;;;68.83;31.47;;;;;;;0.31;100.00;102072.66;5078199;56;1140991;-70
2022/11/30 18:05:40;;;;;;;59.00;32.10;;;;;;;0.36;100.00;102074.78;5127151;56;1140958;-69
2022/11/30 18:10:46;;;;;;;65.05;32.88;;;;;;;0.42;100.00;102078.64;5102013;56;1141194;-67
2022/11/30 18:15:52;;;;;;;62.27;34.50;;;;;;;0.42;100.00;102082.98;5058767;56;1140865;-67
2022/11/30 18:21:05;;;;;;;56.23;29.33;;;;;;;0.40;100.00;102093.41;5042279;56;1141158;-69
2022/11/30 18:26:14;;;;;;;79.10;33.97;;;;;;;0.43;100.00;102089.91;5048648;56;1141095;-66
2022/11/30 18:31:20;;;;;;;86.35;38.58;;;;;;;0.43;100.00;102099.88;5045017;56;1141406;-66
2022/11/30 18:36:26;;;;;;;48.50;25.87;;;;;;;0.48;100.00;102097.20;5104695;56;1141086;-69
2022/11/30 18:41:32;;;;;;;57.63;30.07;;;;;;;0.43;100.00;102101.19;5031054;57;1141186;-65
2022/11/30 18:46:37;;;;;;;46.58;24.85;;;;;;;0.39;100.00;102097.31;5035771;57;1141129;-71
2022/11/30 18:51:43;;;;;;;48.83;26.37;;;;;;;0.39;100.00;102098.19;5064002;57;1141169;-66
2022/11/30 18:56:50;;;;;;;59.58;29.85;;;;;;;0.42;100.00;102099.90;5044198;56;1140995;-69
2022/11/30 19:01:56;;;;;;;52.05;28.47;;;;;;;0.42;100.00;102106.41;5044785;56;1141010;-69
2022/11/30 19:07:01;;;;;;;53.33;29.53;;;;;;;0.44;100.00;102104.65;5064444;56;1141182;-68
2022/11/30 19:12:07;;;;;;;47.80;27.87;;;;;;;0.43;100.00;102112.89;5044498;57;1140929;-64
2022/11/30 19:17:13;;;;;;;51.30;28.27;;;;;;;0.41;100.00;102118.98;5044889;57;1140938;-65
2022/11/30 19:22:20;;;;;;;65.40;33.30;;;;;;;0.42;100.00;102124.63;5064158;57;1141153;-68
2022/11/30 19:27:25;;;;;;;56.73;29.93;;;;;;;0.43;100.00;102128.52;5044368;57;1141074;-66
2022/11/30 19:32:34;;;;;;;50.87;26.87;;;;;;;0.46;100.00;102123.25;5089133;56;1140944;-64
2022/11/30 19:37:40;;;;;;;59.40;31.37;;;;;;;0.44;100.00;102122.44;5094169;56;1140895;-68
2022/11/30 19:42:46;;;;;;;53.68;27.77;;;;;;;0.46;100.00;102128.92;5020774;56;1267802;-66
2022/11/30 19:47:52;;;;;;;56.80;28.70;;;;;;;0.47;100.00;102129.32;5042383;56;1141405;-64
2022/11/30 19:52:59;;;;;;;55.85;29.75;;;;;;;0.50;100.00;102131.89;5127269;56;1140941;-66
2022/11/30 19:58:04;;;;;;;75.33;34.20;;;;;;;0.52;100.00;102137.52;5037295;57;1140947;-70
2022/11/30 20:03:10;;;;;;;69.53;32.97;;;;;;;0.55;100.00;102138.80;5102238;56;1140911;-64
2022/11/30 20:08:16;;;;;;;128.97;54.67;;;;;;;0.58;100.00;102140.50;5126780;56;1141000;-65
2022/11/30 20:13:22;;;;;;;113.20;54.50;;;;;;;0.62;100.00;102132.63;5145885;56;1143050;-66
2022/11/30 20:18:27;;;;;;;77.80;37.10;;;;;;;0.63;100.00;102136.09;5125942;56;1143136;-67
2022/11/30 20:23:35;;;;;;;61.50;31.53;;;;;;;0.65;100.00;102143.45;5126101;56;1141004;-66
2022/11/30 20:28:41;;;;;;;64.63;32.60;;;;;;;0.63;100.00;102142.59;5146104;56;1140941;-67
2022/11/30 20:33:47;;;;;;;59.30;31.97;;;;;;;0.63;100.00;102140.00;5125457;56;1141260;-67
2022/11/30 20:38:53;;;;;;;61.95;30.90;;;;;;;0.63;100.00;102142.16;5042346;56;1140917;-67
2022/11/30 20:43:58;;;;;;;58.83;31.45;;;;;;;0.63;100.00;102147.37;5061975;56;1141199;-68
2022/11/30 20:49:08;;;;;;;58.63;31.37;;;;;;;0.60;100.00;102140.92;5042193;56;1141140;-68
2022/11/30 20:54:15;;;;;;;67.23;32.97;;;;;;;0.62;100.00;102146.95;5041687;57;1141185;-66
2022/11/30 20:59:25;;;;;;;67.72;31.97;;;;;;;0.63;100.00;102151.71;5041947;57;1141114;-67
2022/11/30 21:04:28;;;;;;;62.23;30.30;;;;;;;0.65;100.00;102152.13;5164839;56;1140916;-66
2022/11/30 21:09:34;;;;;;;67.00;32.67;;;;;;;0.68;100.00;102157.75;5127029;56;1140890;-69
2022/11/30 21:14:40;;;;;;;70.03;33.23;;;;;;;0.69;100.00;102149.92;5126762;56;1140933;-68
2022/11/30 21:19:47;;;;;;;100.07;43.73;;;;;;;0.72;100.00;102152.94;5138132;56;1141033;-68
2022/11/30 21:24:53;;;;;;;71.60;36.35;;;;;;;0.70;100.00;102158.16;5122020;56;1143065;-69
2022/11/30 21:29:59;;;;;;;59.03;30.87;;;;;;;0.68;100.00;102148.63;5127165;56;1140928;-68
2022/11/30 21:35:05;;;;;;;68.17;32.20;;;;;;;0.68;100.00;102147.33;5114597;56;1141111;-68
2022/11/30 21:40:11;;;;;;;58.77;31.83;;;;;;;0.68;100.00;102141.69;5044246;57;1140972;-66
2022/11/30 21:45:17;;;;;;;79.55;38.55;;;;;;;0.74;100.00;102152.48;5045040;56;1141094;-69
2022/11/30 21:50:22;;;;;;;62.50;31.43;;;;;;;0.77;100.00;102149.82;5031339;57;1141225;-65
2022/11/30 21:55:28;;;;;;;69.17;30.83;;;;;;;0.80;100.00;102154.14;4963540;57;1141167;-68
2022/11/30 22:00:33;;;;;;;60.27;29.80;;;;;;;0.80;100.00;102145.88;4978248;57;1141005;-66
2022/11/30 22:05:39;;;;;;;60.80;31.23;;;;;;;0.77;100.00;102141.14;5064333;56;1141219;-70
2022/11/30 22:10:45;;;;;;;67.03;31.37;;;;;;;0.81;100.00;102145.45;5032887;57;1141102;-69
2022/11/30 22:15:58;;;;;;;64.22;31.87;;;;;;;0.83;100.00;102142.39;5044289;57;1140909;-67
2022/11/30 22:21:08;;;;;;;67.13;31.77;;;;;;;0.82;100.00;102140.22;5064501;56;1141092;-65
2022/11/30 22:26:20;;;;;;;65.43;32.23;;;;;;;0.82;100.00;102135.02;5038049;56;1140925;-66
2022/11/30 22:31:29;;;;;;;83.40;38.60;;;;;;;0.85;100.00;102136.73;4962635;58;1141018;-70
2022/11/30 22:36:37;;;;;;;73.13;34.23;;;;;;;0.86;100.00;102138.02;5044990;56;1140992;-69
2022/11/30 22:41:45;;;;;;;77.70;35.43;;;;;;;0.84;100.00;102134.56;5096933;56;1141100;-67
2022/11/30 22:46:51;;;;;;;74.47;35.87;;;;;;;0.85;100.00;102137.59;4962887;57;1140985;-68
2022/11/30 22:51:57;;;;;;;71.67;33.73;;;;;;;0.88;100.00;102136.26;5095660;56;1141111;-66
2022/11/30 22:57:02;;;;;;;66.23;32.23;;;;;;;0.93;100.00;102137.48;5121569;56;1140937;-68